Time;durP1;ratioP1;P1;durP2;ratioP2;P2;SDS_P1;SDS_P2;PMS_P1;PMS_P2;Temp;Humidity;BMP_temperature;BMP_pressure;BME280_temperature;BME280_humidity;BME280_pressure;Samples;Min_cycle;Max_cycle;Signal;HPM_P1;HPM_P2
2024/01/15 00:00:42;;;;;;;28.67;4.30;;;20.60;99.90;;;;;;4939954;28;20111;-68
2024/01/15 00:03:10;;;;;;;19.17;2.50;;;20.60;99.90;;;;;;4940502;29;20031;-69
2024/01/15 00:05:38;;;;;;;16.30;2.88;;;20.80;99.90;;;;;;4939272;29;20039;-70
2024/01/15 00:08:05;;;;;;;25.90;3.35;;;20.80;99.90;;;;;;4932674;29;20027;-69
2024/01/15 00:10:33;;;;;;;27.15;4.60;;;20.80;99.90;;;;;;4934053;29;20509;-70
2024/01/15 00:13:00;;;;;;;23.02;3.47;;;20.70;99.90;;;;;;4941702;29;20090;-69
2024/01/15 00:15:28;;;;;;;20.40;3.85;;;20.70;99.90;;;;;;4947223;29;20032;-70
2024/01/15 00:17:56;;;;;;;18.63;3.28;;;20.80;99.90;;;;;;4938991;28;20100;-70
2024/01/15 00:20:23;;;;;;;19.98;2.75;;;20.80;99.90;;;;;;4941043;29;20110;-69
2024/01/15 00:22:50;;;;;;;23.38;3.20;;;20.70;99.90;;;;;;4934491;28;20339;-69
2024/01/15 00:25:18;;;;;;;13.20;2.42;;;20.80;99.90;;;;;;4937322;29;20082;-69
2024/01/15 00:27:45;;;;;;;13.35;2.22;;;20.80;99.90;;;;;;4945827;29;20032;-70
2024/01/15 00:30:13;;;;;;;11.60;2.10;;;20.70;99.90;;;;;;4935757;28;20096;-69
2024/01/15 00:32:42;;;;;;;12.07;1.52;;;20.40;99.90;;;;;;4933536;28;20058;-69
2024/01/15 00:35:10;;;;;;;9.18;2.10;;;20.20;99.90;;;;;;4934013;29;20051;-69
2024/01/15 00:37:41;;;;;;;12.50;2.38;;;20.20;99.90;;;;;;4936935;28;20031;-70
2024/01/15 00:40:09;;;;;;;15.05;2.38;;;20.10;99.90;;;;;;4939204;29;20032;-69
2024/01/15 00:42:37;;;;;;;13.77;2.10;;;20.10;99.90;;;;;;4933185;29;20028;-69
2024/01/15 00:45:07;;;;;;;10.43;2.40;;;20.30;99.90;;;;;;4933886;29;20393;-69
2024/01/15 00:47:36;;;;;;;12.90;2.22;;;20.40;99.90;;;;;;4933348;29;20031;-70
2024/01/15 00:50:04;;;;;;;10.32;2.40;;;20.60;99.90;;;;;;4947754;28;20059;-69
2024/01/15 00:52:32;;;;;;;13.88;1.90;;;20.50;99.90;;;;;;4933398;29;20047;-69
2024/01/15 00:55:01;;;;;;;9.63;2.05;;;20.40;99.90;;;;;;4941193;29;20031;-69
2024/01/15 00:57:28;;;;;;;12.98;2.13;;;20.20;99.90;;;;;;4935087;28;20035;-69
2024/01/15 00:59:56;;;;;;;13.95;2.58;;;20.10;99.90;;;;;;4932985;28;20118;-69
2024/01/15 01:02:24;;;;;;;12.00;2.55;;;20.00;99.90;;;;;;4944003;28;20082;-70
2024/01/15 01:04:52;;;;;;;13.55;2.35;;;19.90;99.90;;;;;;4935640;28;20035;-70
2024/01/15 01:07:20;;;;;;;13.25;2.63;;;20.10;99.90;;;;;;4944812;28;20082;-69
2024/01/15 01:09:51;;;;;;;15.68;2.85;;;20.30;99.90;;;;;;4933154;28;20043;-70
2024/01/15 01:12:19;;;;;;;9.90;2.45;;;20.50;99.90;;;;;;4943671;28;20153;-70
2024/01/15 01:14:47;;;;;;;13.50;2.58;;;20.80;99.90;;;;;;4933801;28;20043;-69
2024/01/15 01:17:15;;;;;;;14.18;2.33;;;20.90;99.90;;;;;;4947336;29;20362;-69
2024/01/15 01:19:43;;;;;;;15.90;2.92;;;21.00;99.90;;;;;;4935214;28;20054;-70
2024/01/15 01:22:11;;;;;;;16.42;3.00;;;21.20;99.90;;;;;;4944731;29;20024;-70
2024/01/15 01:24:40;;;;;;;12.95;2.50;;;21.30;99.90;;;;;;4941334;29;20046;-70
2024/01/15 01:27:12;;;;;;;9.88;2.13;;;21.50;99.90;;;;;;4940060;28;20055;-69
2024/01/15 01:29:41;;;;;;;15.88;2.80;;;21.70;99.90;;;;;;4942854;29;20070;-70
2024/01/15 01:32:09;;;;;;;17.77;3.83;;;21.80;99.90;;;;;;4941232;28;20039;-70
2024/01/15 01:34:45;;;;;;;16.38;2.63;;;21.80;99.90;;;;;;4936003;29;20024;-70
2024/01/15 01:37:13;;;;;;;17.27;3.70;;;21.80;99.90;;;;;;4950310;28;20425;-70
2024/01/15 01:39:45;;;;;;;15.35;3.28;;;21.80;99.90;;;;;;4943643;28;20043;-70
2024/01/15 01:42:13;;;;;;;14.20;2.95;;;21.70;99.90;;;;;;4955355;28;20055;-70
2024/01/15 01:44:41;;;;;;;14.32;3.05;;;21.60;99.90;;;;;;4939319;29;20031;-70
2024/01/15 01:47:11;;;;;;;17.17;3.30;;;21.70;99.90;;;;;;4946757;29;20047;-71
2024/01/15 01:49:39;;;;;;;16.35;2.60;;;21.90;99.90;;;;;;4954134;28;20047;-70
2024/01/15 01:52:14;;;;;;;15.10;2.38;;;22.00;99.90;;;;;;4957012;28;20141;-71
2024/01/15 01:54:42;;;;;;;15.82;2.47;;;22.10;99.90;;;;;;4937545;28;20461;-70
2024/01/15 01:57:11;;;;;;;16.58;2.88;;;22.30;99.90;;;;;;4943022;29;20444;-70
2024/01/15 01:59:40;;;;;;;20.92;2.53;;;22.30;99.90;;;;;;4935746;29;20044;-70
2024/01/15 02:02:09;;;;;;;18.10;2.72;;;22.20;99.90;;;;;;4940397;29;20378;-70
2024/01/15 02:04:38;;;;;;;18.27;3.03;;;22.10;99.90;;;;;;4935830;28;20496;-69
2024/01/15 02:07:07;;;;;;;16.85;3.22;;;21.90;99.90;;;;;;4953019;28;20078;-69
2024/01/15 02:09:35;;;;;;;20.52;2.78;;;21.80;99.90;;;;;;4938578;29;20466;-69
2024/01/15 02:12:08;;;;;;;20.13;2.50;;;21.70;99.90;;;;;;4943587;29;20027;-70
2024/01/15 02:14:40;;;;;;;17.55;3.00;;;21.70;99.90;;;;;;4946059;28;20055;-69
2024/01/15 02:17:09;;;;;;;22.60;2.83;;;21.70;99.90;;;;;;4937606;29;20071;-70
2024/01/15 02:19:39;;;;;;;22.42;3.67;;;21.80;99.90;;;;;;4954407;28;20047;-70
2024/01/15 02:22:10;;;;;;;23.60;3.55;;;21.80;99.90;;;;;;4948469;28;20028;-71
2024/01/15 02:24:39;;;;;;;16.92;2.80;;;21.70;99.90;;;;;;4938973;28;20028;-69
2024/01/15 02:27:07;;;;;;;22.75;3.38;;;21.90;99.90;;;;;;4936940;28;20119;-70
2024/01/15 02:29:37;;;;;;;27.80;3.72;;;21.90;99.90;;;;;;4936296;28;20456;-68
2024/01/15 02:32:12;;;;;;;19.88;2.70;;;22.20;99.90;;;;;;4935028;28;20149;-70
2024/01/15 02:34:40;;;;;;;31.17;3.97;;;22.20;99.90;;;;;;4945608;28;20110;-70
2024/01/15 02:37:09;;;;;;;19.77;3.20;;;22.10;99.90;;;;;;4937063;28;20523;-69
2024/01/15 02:39:37;;;;;;;26.58;3.78;;;22.10;99.90;;;;;;4946836;28;20059;-69
2024/01/15 02:42:06;;;;;;;26.75;3.88;;;21.80;99.90;;;;;;4935892;29;20030;-69
2024/01/15 02:44:34;;;;;;;23.98;2.92;;;21.60;99.90;;;;;;4936224;28;20032;-69
2024/01/15 02:47:02;;;;;;;23.65;3.53;;;21.60;99.90;;;;;;4944460;29;20035;-69
2024/01/15 02:49:32;;;;;;;23.38;3.70;;;21.60;99.90;;;;;;4949791;28;20433;-70
2024/01/15 02:52:01;;;;;;;23.52;3.95;;;21.50;99.90;;;;;;4937900;28;20035;-69
2024/01/15 02:54:31;;;;;;;24.95;3.47;;;21.50;99.90;;;;;;4937213;28;20027;-70
2024/01/15 02:57:00;;;;;;;23.80;4.15;;;21.60;99.90;;;;;;4952156;28;20032;-70
2024/01/15 02:59:29;;;;;;;17.13;2.90;;;21.80;99.90;;;;;;4943177;29;20057;-69
2024/01/15 03:01:57;;;;;;;22.10;3.05;;;21.80;99.90;;;;;;4942454;28;20110;-69
2024/01/15 03:04:26;;;;;;;20.48;3.45;;;21.90;99.90;;;;;;4939118;29;20037;-69
2024/01/15 03:06:58;;;;;;;28.27;3.38;;;21.70;99.90;;;;;;4935179;28;20420;-69
2024/01/15 03:09:28;;;;;;;17.40;2.35;;;21.70;99.90;;;;;;4936522;29;20031;-70
2024/01/15 03:11:56;;;;;;;30.02;3.17;;;21.90;99.90;;;;;;4948440;29;20083;-70
2024/01/15 03:14:26;;;;;;;24.48;3.67;;;22.00;99.90;;;;;;4938623;28;20054;-70
2024/01/15 03:16:54;;;;;;;29.00;4.85;;;22.10;99.90;;;;;;4952735;28;20504;-70
2024/01/15 03:19:23;;;;;;;18.67;2.92;;;22.10;99.90;;;;;;4934286;28;20032;-69
2024/01/15 03:21:51;;;;;;;17.02;2.78;;;22.30;99.90;;;;;;4950976;28;20035;-71
2024/01/15 03:24:20;;;;;;;24.77;4.00;;;22.50;99.90;;;;;;4944807;28;20574;-69
2024/01/15 03:26:48;;;;;;;24.00;3.55;;;22.50;99.90;;;;;;4943819;29;20024;-70
2024/01/15 03:29:15;;;;;;;24.98;2.60;;;22.70;99.90;;;;;;4948751;28;20031;-71
2024/01/15 03:31:44;;;;;;;26.67;4.05;;;23.00;99.90;;;;;;4941646;29;20083;-72
2024/01/15 03:34:12;;;;;;;22.17;3.38;;;23.10;99.90;;;;;;4934123;29;20040;-71
2024/01/15 03:36:40;;;;;;;15.23;3.10;;;23.30;99.90;;;;;;4941418;29;20063;-71
2024/01/15 03:39:09;;;;;;;23.20;3.10;;;23.40;99.90;;;;;;4934087;29;20031;-70
2024/01/15 03:41:38;;;;;;;18.63;3.00;;;23.50;99.90;;;;;;4949980;28;20425;-70
2024/01/15 03:44:07;;;;;;;21.20;2.38;;;23.50;99.90;;;;;;4940970;29;20038;-70
2024/01/15 03:46:35;;;;;;;22.58;3.20;;;23.50;99.90;;;;;;4935521;29;20103;-70
2024/01/15 03:49:03;;;;;;;22.27;3.10;;;23.30;99.90;;;;;;4933091;29;20036;-70
2024/01/15 03:51:31;;;;;;;20.42;2.75;;;23.20;99.90;;;;;;4934210;29;20111;-71
2024/01/15 03:54:02;;;;;;;17.92;2.67;;;23.30;99.90;;;;;;4933935;29;20055;-70
2024/01/15 03:56:30;;;;;;;20.38;3.10;;;23.20;99.90;;;;;;4939397;28;20111;-71
2024/01/15 03:59:00;;;;;;;15.93;2.58;;;23.10;99.90;;;;;;4936657;28;20444;-71
2024/01/15 04:01:28;;;;;;;17.42;2.53;;;23.20;99.90;;;;;;4947844;29;20082;-71
2024/01/15 04:03:56;;;;;;;19.67;2.53;;;23.40;99.90;;;;;;4944762;29;20093;-71
2024/01/15 04:06:24;;;;;;;20.10;2.88;;;23.50;99.90;;;;;;4934356;29;20374;-71
2024/01/15 04:08:52;;;;;;;22.45;2.90;;;23.70;99.90;;;;;;4934427;29;20168;-71
2024/01/15 04:11:20;;;;;;;21.30;3.55;;;24.00;99.60;;;;;;4952546;28;20030;-71
2024/01/15 04:13:48;;;;;;;19.55;2.78;;;24.20;99.90;;;;;;4933740;29;20028;-71
2024/01/15 04:16:16;;;;;;;23.13;3.40;;;24.50;99.50;;;;;;4937713;29;20024;-70
2024/01/15 04:18:44;;;;;;;20.45;2.33;;;24.50;98.90;;;;;;4936890;29;20513;-71
2024/01/15 04:21:13;;;;;;;25.27;2.88;;;24.40;98.10;;;;;;4933096;28;20035;-73
2024/01/15 04:23:46;;;;;;;19.67;3.20;;;24.30;98.60;;;;;;4937411;29;20461;-71
2024/01/15 04:26:14;;;;;;;23.13;3.35;;;24.10;98.10;;;;;;4942410;28;20086;-71
2024/01/15 04:28:42;;;;;;;21.02;2.72;;;24.00;98.50;;;;;;4934138;28;20110;-71
2024/01/15 04:31:10;;;;;;;18.45;2.38;;;23.90;98.20;;;;;;4937062;29;20032;-72
2024/01/15 04:33:38;;;;;;;22.17;3.70;;;23.80;98.40;;;;;;4934108;29;20031;-71
2024/01/15 04:36:06;;;;;;;10.95;2.10;;;23.80;98.60;;;;;;4939710;29;20056;-73
2024/01/15 04:38:36;;;;;;;18.42;3.03;;;23.80;98.60;;;;;;4946797;29;20023;-71
2024/01/15 04:41:04;;;;;;;23.02;2.83;;;23.90;98.30;;;;;;4940768;29;20042;-71
2024/01/15 04:43:36;;;;;;;20.63;2.30;;;24.00;98.70;;;;;;4934613;29;20576;-72
2024/01/15 04:46:09;;;;;;;19.17;2.13;;;24.10;98.10;;;;;;4933517;29;20047;-71
2024/01/15 04:48:38;;;;;;;19.75;2.88;;;24.10;97.90;;;;;;4941900;28;20042;-72
2024/01/15 04:51:11;;;;;;;17.60;2.33;;;24.20;97.90;;;;;;4938262;29;20035;-73
2024/01/15 04:53:38;;;;;;;20.02;3.63;;;24.10;97.80;;;;;;4940921;29;20098;-71
2024/01/15 04:56:06;;;;;;;21.70;2.80;;;24.20;97.30;;;;;;4935635;29;20027;-73
2024/01/15 04:58:33;;;;;;;23.42;2.55;;;24.00;97.20;;;;;;4945119;28;20499;-71
2024/01/15 05:01:01;;;;;;;19.98;2.42;;;24.10;97.70;;;;;;4948471;28;20043;-74
2024/01/15 05:03:29;;;;;;;15.65;2.53;;;24.30;97.70;;;;;;4946092;28;20023;-70
2024/01/15 05:05:57;;;;;;;16.00;2.33;;;24.20;97.30;;;;;;4936676;28;20024;-71
2024/01/15 05:08:24;;;;;;;16.88;2.33;;;24.30;97.30;;;;;;4940867;28;20027;-71
2024/01/15 05:10:51;;;;;;;13.30;2.13;;;24.40;97.10;;;;;;4950165;28;20027;-72
2024/01/15 05:13:19;;;;;;;15.77;2.70;;;24.50;96.80;;;;;;4946224;28;20019;-71
2024/01/15 05:15:47;;;;;;;17.63;2.35;;;24.40;96.30;;;;;;4943349;28;20039;-72
2024/01/15 05:18:14;;;;;;;19.95;2.95;;;24.30;96.50;;;;;;4937647;29;20035;-72
2024/01/15 05:20:42;;;;;;;17.58;2.83;;;24.30;96.60;;;;;;4939801;29;20107;-73
2024/01/15 05:23:09;;;;;;;21.55;2.78;;;24.20;96.60;;;;;;4937720;29;20030;-72
2024/01/15 05:25:36;;;;;;;16.50;2.47;;;24.10;96.50;;;;;;4946437;29;20430;-71
2024/01/15 05:28:06;;;;;;;20.50;2.45;;;24.10;96.60;;;;;;4951362;28;20408;-73
2024/01/15 05:30:33;;;;;;;16.25;2.08;;;24.10;97.00;;;;;;4935867;29;20480;-72
2024/01/15 05:33:01;;;;;;;14.23;2.63;;;24.30;96.80;;;;;;4946071;28;20479;-71
2024/01/15 05:35:28;;;;;;;20.58;2.03;;;24.20;96.30;;;;;;4936310;29;20028;-70
2024/01/15 05:37:55;;;;;;;15.30;2.40;;;24.10;96.50;;;;;;4949872;28;20035;-69
2024/01/15 05:40:23;;;;;;;16.38;2.58;;;24.00;96.40;;;;;;4944250;29;20036;-69
2024/01/15 05:42:50;;;;;;;15.95;2.70;;;23.90;96.60;;;;;;4940450;29;20464;-70
2024/01/15 05:45:18;;;;;;;15.38;2.30;;;23.80;96.30;;;;;;4942356;28;20023;-69
2024/01/15 05:47:45;;;;;;;16.75;2.67;;;23.60;96.70;;;;;;4936407;29;20110;-71
2024/01/15 05:50:12;;;;;;;22.33;3.55;;;23.60;97.00;;;;;;4936566;29;20100;-69
2024/01/15 05:52:40;;;;;;;15.20;2.70;;;23.20;98.50;;;;;;4943487;29;20043;-70
2024/01/15 05:55:08;;;;;;;24.58;3.92;;;22.80;99.40;;;;;;4948472;28;20127;-70
2024/01/15 05:57:35;;;;;;;19.63;2.70;;;22.70;99.90;;;;;;4936971;29;20028;-70
2024/01/15 06:00:03;;;;;;;13.82;2.40;;;22.80;99.90;;;;;;4945140;29;20039;-71
2024/01/15 06:02:31;;;;;;;18.13;3.15;;;22.80;99.90;;;;;;4939853;29;20063;-70
2024/01/15 06:04:58;;;;;;;18.55;2.92;;;23.00;99.90;;;;;;4935379;29;20039;-70
2024/01/15 06:07:25;;;;;;;19.98;2.67;;;23.00;99.90;;;;;;4936213;29;20469;-70
2024/01/15 06:09:53;;;;;;;20.58;3.10;;;22.90;99.90;;;;;;4940819;29;20045;-69
2024/01/15 06:12:20;;;;;;;18.90;3.30;;;22.70;99.90;;;;;;4935920;29;20042;-70
2024/01/15 06:14:47;;;;;;;18.98;2.30;;;22.30;99.90;;;;;;4936159;29;20046;-69
2024/01/15 06:17:15;;;;;;;27.95;3.03;;;22.30;99.90;;;;;;4941081;28;20028;-69
2024/01/15 06:19:42;;;;;;;15.50;2.67;;;22.20;99.90;;;;;;4947890;28;20050;-70
2024/01/15 06:22:09;;;;;;;18.77;2.60;;;22.40;99.90;;;;;;4935134;28;20380;-70
2024/01/15 06:24:37;;;;;;;17.02;2.55;;;22.60;99.90;;;;;;4947625;29;20055;-70
2024/01/15 06:27:04;;;;;;;17.13;2.65;;;22.70;99.40;;;;;;4942627;28;20031;-71
2024/01/15 06:29:32;;;;;;;19.25;2.97;;;22.70;99.10;;;;;;4942494;29;20051;-70
2024/01/15 06:32:00;;;;;;;20.17;3.45;;;22.60;99.90;;;;;;4941041;29;20094;-68
2024/01/15 06:34:28;;;;;;;15.70;2.88;;;22.30;99.90;;;;;;4941640;29;20024;-68
2024/01/15 06:36:55;;;;;;;18.77;2.35;;;22.20;99.90;;;;;;4941958;29;20019;-71
2024/01/15 06:39:23;;;;;;;15.48;2.72;;;21.90;99.90;;;;;;4937132;29;20041;-69
2024/01/15 06:41:50;;;;;;;19.17;2.92;;;21.80;99.90;;;;;;4935124;29;20036;-70
2024/01/15 06:44:20;;;;;;;18.25;2.30;;;21.80;99.90;;;;;;4936079;29;20264;-68
2024/01/15 06:46:48;;;;;;;10.85;2.58;;;21.60;99.90;;;;;;4935064;29;20473;-69
2024/01/15 06:49:16;;;;;;;8.50;2.08;;;21.60;99.90;;;;;;4938359;29;20027;-69
2024/01/15 06:51:43;;;;;;;12.60;2.33;;;21.50;99.90;;;;;;4945972;29;20114;-69
2024/01/15 06:54:11;;;;;;;20.48;2.95;;;21.30;99.90;;;;;;4951846;28;20039;-70
2024/01/15 06:56:38;;;;;;;20.05;2.28;;;21.20;99.90;;;;;;4941248;28;20409;-69
2024/01/15 06:59:05;;;;;;;17.48;2.40;;;21.30;99.90;;;;;;4934338;29;20119;-70
2024/01/15 07:01:33;;;;;;;22.85;2.28;;;21.20;99.90;;;;;;4948032;29;20078;-70
2024/01/15 07:04:00;;;;;;;22.10;2.55;;;21.30;99.90;;;;;;4939007;28;20036;-70
2024/01/15 07:06:27;;;;;;;23.52;3.05;;;21.40;99.90;;;;;;4942337;29;20082;-70
2024/01/15 07:08:55;;;;;;;27.65;4.07;;;21.50;99.90;;;;;;4936659;28;20027;-70
2024/01/15 07:11:22;;;;;;;16.88;2.72;;;21.60;99.90;;;;;;4935274;29;20100;-70
2024/01/15 07:13:49;;;;;;;12.75;2.28;;;21.70;99.90;;;;;;4942064;29;20541;-70
2024/01/15 07:16:17;;;;;;;14.90;2.90;;;21.80;99.90;;;;;;4952540;28;20046;-70
2024/01/15 07:18:44;;;;;;;16.23;2.15;;;21.90;99.90;;;;;;4945150;29;20063;-70
2024/01/15 07:21:11;;;;;;;16.40;2.50;;;22.10;99.90;;;;;;4934387;29;20470;-70
2024/01/15 07:23:39;;;;;;;10.45;1.60;;;22.20;99.90;;;;;;4939057;29;20454;-70
2024/01/15 07:26:06;;;;;;;14.98;2.22;;;22.40;99.90;;;;;;4938203;29;20042;-73
2024/01/15 07:28:37;;;;;;;12.18;2.35;;;22.60;99.90;;;;;;4934418;28;20340;-70
2024/01/15 07:31:06;;;;;;;22.92;2.30;;;22.60;99.90;;;;;;4936596;29;20028;-71
2024/01/15 07:33:33;;;;;;;19.52;2.40;;;22.70;99.80;;;;;;4938756;29;20082;-71
2024/01/15 07:36:02;;;;;;;19.60;3.55;;;22.70;99.90;;;;;;4933802;29;20473;-71
2024/01/15 07:38:30;;;;;;;20.73;3.15;;;22.60;99.90;;;;;;4939484;28;20405;-71
2024/01/15 07:40:57;;;;;;;19.48;3.60;;;22.60;99.90;;;;;;4935019;29;20094;-71
2024/01/15 07:43:24;;;;;;;16.02;3.58;;;22.60;99.90;;;;;;4935147;28;20024;-71
2024/01/15 07:45:52;;;;;;;15.23;2.85;;;22.60;99.90;;;;;;4941830;28;20039;-71
2024/01/15 07:48:20;;;;;;;16.65;3.17;;;22.50;99.90;;;;;;4935246;28;20513;-72
2024/01/15 07:50:47;;;;;;;14.43;2.28;;;22.50;99.90;;;;;;4945393;28;20031;-74
2024/01/15 07:53:14;;;;;;;16.67;3.08;;;22.50;99.90;;;;;;4944778;28;20130;-71
2024/01/15 07:55:42;;;;;;;15.77;3.05;;;22.50;99.90;;;;;;4938889;28;20035;-71
2024/01/15 07:58:09;;;;;;;18.90;2.28;;;22.40;99.90;;;;;;4944042;29;20035;-71
2024/01/15 08:00:37;;;;;;;16.42;2.45;;;22.40;99.90;;;;;;4940333;28;20046;-70
2024/01/15 08:03:04;;;;;;;18.20;2.67;;;22.40;99.90;;;;;;4939532;28;20042;-71
2024/01/15 08:05:32;;;;;;;26.27;3.40;;;22.40;99.90;;;;;;4937987;29;20070;-68
2024/01/15 08:07:59;;;;;;;17.77;2.85;;;22.40;99.90;;;;;;4931319;28;20124;-70
2024/01/15 08:10:27;;;;;;;23.95;3.83;;;22.30;99.90;;;;;;4937887;28;20023;-69
2024/01/15 08:12:54;;;;;;;25.23;3.25;;;22.30;99.90;;;;;;4936098;28;20039;-69
2024/01/15 08:15:21;;;;;;;18.33;2.70;;;22.30;99.90;;;;;;4945428;28;20020;-70
2024/01/15 08:17:49;;;;;;;21.38;2.88;;;22.30;99.90;;;;;;4942002;29;20379;-68
2024/01/15 08:20:16;;;;;;;16.60;2.75;;;22.40;99.90;;;;;;4937100;28;20054;-69
2024/01/15 08:22:44;;;;;;;14.38;2.25;;;22.20;99.90;;;;;;4939559;29;20028;-68
2024/01/15 08:25:12;;;;;;;19.40;3.03;;;22.30;99.90;;;;;;4933631;29;20031;-69
2024/01/15 08:27:40;;;;;;;22.77;3.65;;;22.20;99.90;;;;;;4933398;29;20031;-70
2024/01/15 08:30:08;;;;;;;16.80;2.80;;;22.20;99.90;;;;;;4941147;28;20031;-70
2024/01/15 08:32:40;;;;;;;20.58;2.80;;;22.10;99.90;;;;;;4936575;29;20042;-70
2024/01/15 08:35:09;;;;;;;19.23;2.78;;;22.00;99.90;;;;;;4944799;28;20481;-68
2024/01/15 08:37:36;;;;;;;18.55;3.42;;;21.90;99.90;;;;;;4942269;29;20032;-69
2024/01/15 08:40:04;;;;;;;17.42;3.47;;;22.00;99.90;;;;;;4939962;29;20043;-69
2024/01/15 08:42:31;;;;;;;19.30;3.63;;;22.00;99.90;;;;;;4943376;28;20099;-70
2024/01/15 08:44:58;;;;;;;24.10;3.30;;;22.00;99.90;;;;;;4939464;29;20438;-69
2024/01/15 08:47:26;;;;;;;19.30;3.20;;;22.00;99.90;;;;;;4937589;29;20114;-70
2024/01/15 08:49:54;;;;;;;20.60;3.42;;;21.90;99.90;;;;;;4942782;29;20031;-70
2024/01/15 08:52:21;;;;;;;21.45;3.53;;;21.90;99.90;;;;;;4944902;28;20439;-70
2024/01/15 08:54:48;;;;;;;19.38;3.22;;;21.90;99.90;;;;;;4939620;29;20038;-69
2024/01/15 08:57:16;;;;;;;23.65;3.85;;;21.80;99.90;;;;;;4937505;29;20428;-70
2024/01/15 08:59:43;;;;;;;20.95;3.95;;;21.80;99.90;;;;;;4961672;28;20075;-70
2024/01/15 09:02:10;;;;;;;21.35;3.70;;;21.80;99.90;;;;;;4939473;28;20128;-70
2024/01/15 09:04:38;;;;;;;22.58;3.50;;;21.80;99.90;;;;;;4944020;28;20122;-71
2024/01/15 09:07:06;;;;;;;22.33;3.10;;;21.70;99.90;;;;;;4948807;28;20452;-70
2024/01/15 09:09:34;;;;;;;30.42;3.83;;;21.60;99.90;;;;;;4940179;28;20363;-70
2024/01/15 09:12:01;;;;;;;27.35;4.03;;;21.60;99.90;;;;;;4942683;28;20065;-69
2024/01/15 09:14:29;;;;;;;23.20;3.58;;;21.60;99.90;;;;;;4941641;28;20042;-71
2024/01/15 09:16:57;;;;;;;22.50;3.60;;;21.60;99.90;;;;;;4942989;28;20035;-70
2024/01/15 09:19:24;;;;;;;23.83;3.40;;;21.60;99.90;;;;;;4939868;29;20031;-71
2024/01/15 09:21:51;;;;;;;20.83;3.92;;;21.60;99.90;;;;;;4940905;28;20453;-70
2024/01/15 09:24:19;;;;;;;17.27;3.40;;;21.50;99.90;;;;;;4944450;28;20035;-70
2024/01/15 09:26:46;;;;;;;22.13;3.03;;;21.50;99.90;;;;;;4935724;29;20019;-70
2024/01/15 09:29:15;;;;;;;20.58;2.95;;;21.60;99.90;;;;;;4937311;29;20026;-69
2024/01/15 09:31:43;;;;;;;25.08;3.88;;;21.70;99.90;;;;;;4937774;29;20448;-69
2024/01/15 09:34:11;;;;;;;24.20;2.75;;;21.70;99.90;;;;;;4936344;29;20049;-69
2024/01/15 09:36:44;;;;;;;26.25;3.35;;;21.50;99.90;;;;;;4937746;29;20367;-69
2024/01/15 09:39:12;;;;;;;20.98;4.32;;;21.50;99.90;;;;;;4936907;29;20058;-69
2024/01/15 09:41:39;;;;;;;25.58;4.32;;;21.40;99.90;;;;;;4946767;28;20035;-69
2024/01/15 09:44:07;;;;;;;19.83;2.97;;;21.40;99.90;;;;;;4936440;29;20674;-71
2024/01/15 09:46:36;;;;;;;23.02;3.63;;;21.20;99.90;;;;;;4942777;28;20035;-69
2024/01/15 09:49:04;;;;;;;26.60;4.03;;;21.40;99.90;;;;;;4945867;28;20377;-70
2024/01/15 09:51:33;;;;;;;17.92;3.00;;;21.50;99.90;;;;;;4938246;28;20114;-69
2024/01/15 09:54:00;;;;;;;24.42;3.92;;;21.60;99.90;;;;;;4959157;28;20110;-70
2024/01/15 09:56:33;;;;;;;21.92;3.80;;;21.70;99.90;;;;;;4952609;28;20024;-69
2024/01/15 09:59:01;;;;;;;21.55;4.03;;;21.60;99.90;;;;;;4944499;28;20028;-70
2024/01/15 10:01:29;;;;;;;20.17;2.97;;;21.50;99.90;;;;;;4940681;29;20035;-69
2024/01/15 10:03:57;;;;;;;26.25;4.10;;;21.60;99.90;;;;;;4947583;28;20040;-69
2024/01/15 10:06:27;;;;;;;22.98;3.58;;;21.60;99.90;;;;;;4936482;29;20393;-69
2024/01/15 10:08:58;;;;;;;29.42;4.90;;;21.50;99.90;;;;;;4941219;28;20030;-69
2024/01/15 10:11:25;;;;;;;20.23;3.78;;;21.60;99.90;;;;;;4937169;29;20032;-69
2024/01/15 10:13:54;;;;;;;22.85;3.50;;;21.60;99.90;;;;;;4938745;28;20066;-69
2024/01/15 10:16:22;;;;;;;27.58;4.05;;;21.60;99.90;;;;;;4945050;29;20031;-70
2024/01/15 10:18:50;;;;;;;23.67;3.75;;;21.80;99.90;;;;;;4940775;28;20032;-69
2024/01/15 10:21:17;;;;;;;22.27;3.15;;;21.80;99.90;;;;;;4950394;28;20031;-69
2024/01/15 10:23:44;;;;;;;21.40;3.70;;;21.80;99.90;;;;;;4944062;28;20031;-69
2024/01/15 10:26:12;;;;;;;20.42;3.03;;;21.80;99.90;;;;;;4939488;28;20369;-69
2024/01/15 10:28:39;;;;;;;22.05;3.75;;;21.80;99.90;;;;;;4937967;29;20039;-70
2024/01/15 10:31:06;;;;;;;25.67;3.55;;;21.50;99.90;;;;;;4945178;28;20031;-72
2024/01/15 10:33:34;;;;;;;20.23;2.55;;;21.30;99.90;;;;;;4941138;28;20035;-73
2024/01/15 10:36:02;;;;;;;30.52;4.25;;;21.20;99.90;;;;;;4937253;28;20385;-71
2024/01/15 10:38:29;;;;;;;18.23;3.00;;;21.00;99.90;;;;;;4942109;29;20430;-70
2024/01/15 10:40:57;;;;;;;20.95;3.78;;;21.10;99.90;;;;;;4938102;28;20043;-72
2024/01/15 10:43:24;;;;;;;24.75;3.78;;;21.20;99.90;;;;;;4935927;29;20043;-71
2024/01/15 10:45:52;;;;;;;27.08;4.32;;;21.10;99.90;;;;;;4950675;28;20366;-71
2024/01/15 10:48:20;;;;;;;27.42;3.35;;;21.20;99.90;;;;;;4941578;28;20485;-70
2024/01/15 10:50:48;;;;;;;35.97;4.47;;;21.20;99.90;;;;;;4941876;28;20022;-72
2024/01/15 10:53:17;;;;;;;21.52;3.58;;;21.20;99.90;;;;;;4944777;28;20514;-70
2024/01/15 10:55:48;;;;;;;22.35;3.25;;;21.10;99.90;;;;;;4939773;29;20465;-70
2024/01/15 10:58:17;;;;;;;27.88;4.20;;;21.10;99.90;;;;;;4932914;29;20517;-69
2024/01/15 11:00:45;;;;;;;15.60;2.70;;;21.10;99.90;;;;;;4942207;29;20109;-70
2024/01/15 11:03:16;;;;;;;19.63;3.08;;;20.90;99.90;;;;;;4935617;29;20040;-70
2024/01/15 11:05:45;;;;;;;23.85;3.65;;;21.00;99.90;;;;;;4936828;29;20035;-71
2024/01/15 11:08:12;;;;;;;23.60;3.20;;;20.80;99.90;;;;;;4941756;29;20126;-70
2024/01/15 11:10:52;;;;;;;25.48;3.70;;;20.80;99.90;;;;;;4936632;28;20039;-70
2024/01/15 11:13:36;;;;;;;17.17;3.90;;;20.80;99.90;;;;;;4936031;29;20036;-70
2024/01/15 11:16:06;;;;;;;25.98;3.10;;;20.70;99.90;;;;;;4941276;28;20425;-71
2024/01/15 11:18:40;;;;;;;25.42;4.63;;;20.50;99.90;;;;;;4933547;29;20028;-71
2024/01/15 11:21:17;;;;;;;19.35;3.05;;;20.60;99.90;;;;;;4935803;29;20048;-71
2024/01/15 11:23:58;;;;;;;22.50;3.73;;;20.70;99.90;;;;;;4957188;28;20034;-71
2024/01/15 11:26:32;;;;;;;22.80;4.40;;;20.80;99.90;;;;;;4946506;29;20360;-72
2024/01/15 11:29:02;;;;;;;24.95;3.92;;;20.90;99.90;;;;;;4939095;28;20114;-71
2024/01/15 11:31:42;;;;;;;18.95;3.97;;;20.90;99.90;;;;;;4938158;28;20032;-70
2024/01/15 11:34:12;;;;;;;23.58;3.35;;;20.80;99.90;;;;;;4938811;29;20062;-70
2024/01/15 11:36:51;;;;;;;23.70;3.22;;;20.70;99.90;;;;;;4940452;29;20044;-71
2024/01/15 11:39:42;;;;;;;19.55;3.35;;;20.60;99.90;;;;;;4943167;29;20035;-71
2024/01/15 11:42:13;;;;;;;15.05;2.83;;;20.60;99.90;;;;;;4945826;29;20031;-69
2024/01/15 11:44:41;;;;;;;15.93;3.00;;;20.50;99.90;;;;;;4945848;28;20032;-72
2024/01/15 11:47:13;;;;;;;26.20;3.78;;;20.70;99.90;;;;;;4940423;29;20032;-71
2024/01/15 11:50:08;;;;;;;22.05;3.78;;;20.70;99.90;;;;;;4947463;29;20028;-71
2024/01/15 11:52:37;;;;;;;18.48;2.72;;;20.80;99.90;;;;;;4933876;29;20082;-70
2024/01/15 11:55:30;;;;;;;20.00;2.83;;;20.60;99.90;;;;;;4938113;28;20125;-70
2024/01/15 11:58:01;;;;;;;22.45;4.78;;;20.60;99.90;;;;;;4934044;29;20027;-71
2024/01/15 12:00:29;;;;;;;23.13;3.47;;;20.70;99.90;;;;;;4942218;28;20062;-71
2024/01/15 12:02:59;;;;;;;18.00;2.92;;;20.60;99.90;;;;;;4947247;28;20056;-71
2024/01/15 12:05:26;;;;;;;13.80;2.75;;;20.60;99.90;;;;;;4959865;28;20182;-71
2024/01/15 12:07:53;;;;;;;14.18;2.00;;;20.60;99.90;;;;;;4933704;29;20046;-71
2024/01/15 12:10:21;;;;;;;19.65;2.60;;;20.70;99.90;;;;;;4937071;29;20106;-72
2024/01/15 12:13:15;;;;;;;16.77;3.95;;;20.70;99.90;;;;;;4939206;28;20389;-71
2024/01/15 12:15:44;;;;;;;14.30;2.42;;;20.70;99.90;;;;;;4942633;29;20458;-71
2024/01/15 12:18:13;;;;;;;14.93;2.15;;;20.60;99.90;;;;;;4947108;28;20424;-71
2024/01/15 12:20:42;;;;;;;16.63;3.05;;;20.60;99.90;;;;;;4948634;28;20055;-72
2024/01/15 12:23:10;;;;;;;16.33;2.97;;;20.50;99.90;;;;;;4948797;29;20035;-72
2024/01/15 12:25:38;;;;;;;18.48;2.30;;;20.40;99.90;;;;;;4939680;28;20113;-72
2024/01/15 12:28:06;;;;;;;16.23;3.03;;;20.50;99.90;;;;;;4939995;29;20066;-72
2024/01/15 12:30:36;;;;;;;19.27;2.50;;;20.40;99.90;;;;;;4935723;28;20175;-71
2024/01/15 12:33:08;;;;;;;15.98;2.20;;;20.40;99.90;;;;;;4942166;29;20533;-72
2024/01/15 12:35:36;;;;;;;14.00;1.85;;;20.40;99.90;;;;;;4938513;28;20031;-70
2024/01/15 12:38:04;;;;;;;20.38;2.83;;;20.40;99.90;;;;;;4937862;29;20031;-72
2024/01/15 12:40:34;;;;;;;15.40;2.08;;;20.40;99.90;;;;;;4943482;29;20537;-69
2024/01/15 12:43:01;;;;;;;18.67;2.78;;;20.40;99.90;;;;;;4939483;29;20111;-70
2024/01/15 12:45:31;;;;;;;13.55;2.75;;;20.40;99.90;;;;;;4940447;28;20090;-71